sensor_id;sensor_type;location;lat;lon;timestamp;P1;durP1;ratioP1;P2;durP2;ratioP2
13764;SDS011;6953;48.810;9.204;2023-04-29T00:01:06;0.28;;;0.28;;
13764;SDS011;6953;48.810;9.204;2023-04-29T00:03:34;0.40;;;0.40;;
13764;SDS011;6953;48.810;9.204;2023-04-29T00:06:01;0.30;;;0.30;;
13764;SDS011;6953;48.810;9.204;2023-04-29T00:08:29;0.40;;;0.40;;
13764;SDS011;6953;48.810;9.204;2023-04-29T00:10:57;0.40;;;0.40;;
13764;SDS011;6953;48.810;9.204;2023-04-29T00:13:23;0.38;;;0.38;;
13764;SDS011;6953;48.810;9.204;2023-04-29T00:15:50;0.25;;;0.25;;
13764;SDS011;6953;48.810;9.204;2023-04-29T00:18:19;0.30;;;0.30;;
13764;SDS011;6953;48.810;9.204;2023-04-29T00:20:45;0.40;;;0.40;;
13764;SDS011;6953;48.810;9.204;2023-04-29T00:23:12;0.30;;;0.30;;
13764;SDS011;6953;48.810;9.204;2023-04-29T00:25:38;0.40;;;0.40;;
13764;SDS011;6953;48.810;9.204;2023-04-29T00:28:04;0.30;;;0.30;;
13764;SDS011;6953;48.810;9.204;2023-04-29T00:30:31;0.25;;;0.25;;
13764;SDS011;6953;48.810;9.204;2023-04-29T00:33:01;0.30;;;0.30;;
13764;SDS011;6953;48.810;9.204;2023-04-29T00:35:30;0.40;;;0.40;;
13764;SDS011;6953;48.810;9.204;2023-04-29T00:37:57;0.30;;;0.30;;
13764;SDS011;6953;48.810;9.204;2023-04-29T00:40:27;0.30;;;0.30;;
13764;SDS011;6953;48.810;9.204;2023-04-29T00:42:54;0.30;;;0.30;;
13764;SDS011;6953;48.810;9.204;2023-04-29T00:45:21;0.40;;;0.40;;
13764;SDS011;6953;48.810;9.204;2023-04-29T00:47:48;0.30;;;0.30;;
13764;SDS011;6953;48.810;9.204;2023-04-29T00:50:14;0.45;;;0.45;;
13764;SDS011;6953;48.810;9.204;2023-04-29T00:52:41;0.30;;;0.30;;
13764;SDS011;6953;48.810;9.204;2023-04-29T00:55:09;0.30;;;0.30;;
13764;SDS011;6953;48.810;9.204;2023-04-29T00:57:39;0.30;;;0.30;;
13764;SDS011;6953;48.810;9.204;2023-04-29T01:00:07;0.30;;;0.30;;
13764;SDS011;6953;48.810;9.204;2023-04-29T01:02:34;0.30;;;0.30;;
13764;SDS011;6953;48.810;9.204;2023-04-29T01:05:02;0.40;;;0.40;;
13764;SDS011;6953;48.810;9.204;2023-04-29T01:10:14;0.30;;;0.30;;
13764;SDS011;6953;48.810;9.204;2023-04-29T01:13:04;0.40;;;0.40;;
13764;SDS011;6953;48.810;9.204;2023-04-29T01:18:19;0.40;;;0.40;;
13764;SDS011;6953;48.810;9.204;2023-04-29T01:20:52;0.30;;;0.30;;
13764;SDS011;6953;48.810;9.204;2023-04-29T01:23:25;0.40;;;0.40;;
13764;SDS011;6953;48.810;9.204;2023-04-29T01:25:51;0.35;;;0.35;;
13764;SDS011;6953;48.810;9.204;2023-04-29T01:39:15;0.40;;;0.40;;
13764;SDS011;6953;48.810;9.204;2023-04-29T01:44:36;0.40;;;0.40;;
13764;SDS011;6953;48.810;9.204;2023-04-29T01:47:04;0.40;;;0.40;;
13764;SDS011;6953;48.810;9.204;2023-04-29T01:49:34;0.50;;;0.50;;
13764;SDS011;6953;48.810;9.204;2023-04-29T01:52:01;0.50;;;0.50;;
13764;SDS011;6953;48.810;9.204;2023-04-29T01:54:30;0.40;;;0.40;;
13764;SDS011;6953;48.810;9.204;2023-04-29T01:57:00;0.40;;;0.40;;
13764;SDS011;6953;48.810;9.204;2023-04-29T01:59:28;0.30;;;0.30;;
13764;SDS011;6953;48.810;9.204;2023-04-29T02:01:55;0.47;;;0.47;;
13764;SDS011;6953;48.810;9.204;2023-04-29T02:04:25;0.35;;;0.35;;
13764;SDS011;6953;48.810;9.204;2023-04-29T02:06:52;0.40;;;0.40;;
13764;SDS011;6953;48.810;9.204;2023-04-29T02:09:23;0.40;;;0.40;;
13764;SDS011;6953;48.810;9.204;2023-04-29T02:11:50;0.30;;;0.30;;
13764;SDS011;6953;48.810;9.204;2023-04-29T02:14:17;0.40;;;0.40;;
13764;SDS011;6953;48.810;9.204;2023-04-29T02:16:45;0.40;;;0.40;;
13764;SDS011;6953;48.810;9.204;2023-04-29T02:19:11;0.40;;;0.40;;
13764;SDS011;6953;48.810;9.204;2023-04-29T02:21:37;0.30;;;0.30;;
13764;SDS011;6953;48.810;9.204;2023-04-29T02:24:07;0.43;;;0.43;;
13764;SDS011;6953;48.810;9.204;2023-04-29T02:26:35;0.40;;;0.40;;
13764;SDS011;6953;48.810;9.204;2023-04-29T02:29:02;0.40;;;0.40;;
13764;SDS011;6953;48.810;9.204;2023-04-29T02:31:29;0.32;;;0.32;;
13764;SDS011;6953;48.810;9.204;2023-04-29T02:33:56;0.40;;;0.40;;
13764;SDS011;6953;48.810;9.204;2023-04-29T02:36:24;0.45;;;0.45;;
13764;SDS011;6953;48.810;9.204;2023-04-29T02:38:51;0.45;;;0.45;;
13764;SDS011;6953;48.810;9.204;2023-04-29T02:41:19;0.40;;;0.40;;
13764;SDS011;6953;48.810;9.204;2023-04-29T02:43:46;0.50;;;0.50;;
13764;SDS011;6953;48.810;9.204;2023-04-29T02:46:15;0.40;;;0.40;;
13764;SDS011;6953;48.810;9.204;2023-04-29T02:48:43;0.40;;;0.40;;
13764;SDS011;6953;48.810;9.204;2023-04-29T02:51:09;0.60;;;0.60;;
13764;SDS011;6953;48.810;9.204;2023-04-29T02:53:35;0.40;;;0.40;;
13764;SDS011;6953;48.810;9.204;2023-04-29T02:56:02;0.30;;;0.30;;
13764;SDS011;6953;48.810;9.204;2023-04-29T02:58:30;0.50;;;0.50;;
13764;SDS011;6953;48.810;9.204;2023-04-29T03:00:57;0.40;;;0.40;;
13764;SDS011;6953;48.810;9.204;2023-04-29T03:03:23;0.50;;;0.50;;
13764;SDS011;6953;48.810;9.204;2023-04-29T03:05:50;0.50;;;0.50;;
13764;SDS011;6953;48.810;9.204;2023-04-29T03:08:16;0.40;;;0.40;;
13764;SDS011;6953;48.810;9.204;2023-04-29T03:10:42;0.40;;;0.40;;
13764;SDS011;6953;48.810;9.204;2023-04-29T03:13:10;0.40;;;0.40;;
13764;SDS011;6953;48.810;9.204;2023-04-29T03:15:36;0.60;;;0.60;;
13764;SDS011;6953;48.810;9.204;2023-04-29T03:18:03;0.50;;;0.50;;
13764;SDS011;6953;48.810;9.204;2023-04-29T03:20:30;0.50;;;0.50;;
13764;SDS011;6953;48.810;9.204;2023-04-29T03:22:57;0.50;;;0.50;;
13764;SDS011;6953;48.810;9.204;2023-04-29T03:25:23;0.50;;;0.50;;
13764;SDS011;6953;48.810;9.204;2023-04-29T03:27:50;0.47;;;0.47;;
13764;SDS011;6953;48.810;9.204;2023-04-29T03:30:16;0.30;;;0.30;;
13764;SDS011;6953;48.810;9.204;2023-04-29T03:32:43;0.40;;;0.40;;
13764;SDS011;6953;48.810;9.204;2023-04-29T03:35:09;0.40;;;0.40;;
13764;SDS011;6953;48.810;9.204;2023-04-29T03:37:36;0.43;;;0.43;;
13764;SDS011;6953;48.810;9.204;2023-04-29T03:40:03;0.40;;;0.40;;
13764;SDS011;6953;48.810;9.204;2023-04-29T03:42:30;0.40;;;0.40;;
13764;SDS011;6953;48.810;9.204;2023-04-29T03:44:57;0.40;;;0.40;;
13764;SDS011;6953;48.810;9.204;2023-04-29T03:47:24;0.45;;;0.45;;
13764;SDS011;6953;48.810;9.204;2023-04-29T03:49:51;0.50;;;0.50;;
13764;SDS011;6953;48.810;9.204;2023-04-29T03:52:18;0.40;;;0.40;;
13764;SDS011;6953;48.810;9.204;2023-04-29T03:54:45;0.40;;;0.40;;
13764;SDS011;6953;48.810;9.204;2023-04-29T03:57:13;0.60;;;0.60;;
13764;SDS011;6953;48.810;9.204;2023-04-29T03:59:39;0.50;;;0.50;;
13764;SDS011;6953;48.810;9.204;2023-04-29T04:02:06;0.50;;;0.50;;
13764;SDS011;6953;48.810;9.204;2023-04-29T04:04:36;0.60;;;0.60;;
13764;SDS011;6953;48.810;9.204;2023-04-29T04:07:02;0.60;;;0.60;;
13764;SDS011;6953;48.810;9.204;2023-04-29T04:09:31;0.43;;;0.43;;
13764;SDS011;6953;48.810;9.204;2023-04-29T04:12:00;0.40;;;0.40;;
13764;SDS011;6953;48.810;9.204;2023-04-29T04:14:28;0.30;;;0.30;;
13764;SDS011;6953;48.810;9.204;2023-04-29T04:16:56;0.50;;;0.50;;
13764;SDS011;6953;48.810;9.204;2023-04-29T04:19:23;0.40;;;0.40;;
13764;SDS011;6953;48.810;9.204;2023-04-29T04:21:51;0.40;;;0.40;;
13764;SDS011;6953;48.810;9.204;2023-04-29T04:24:18;0.40;;;0.40;;
13764;SDS011;6953;48.810;9.204;2023-04-29T04:26:46;0.50;;;0.50;;
13764;SDS011;6953;48.810;9.204;2023-04-29T04:29:12;0.50;;;0.50;;
13764;SDS011;6953;48.810;9.204;2023-04-29T04:31:40;0.40;;;0.40;;
13764;SDS011;6953;48.810;9.204;2023-04-29T04:34:07;0.47;;;0.47;;
13764;SDS011;6953;48.810;9.204;2023-04-29T04:36:34;0.40;;;0.40;;
13764;SDS011;6953;48.810;9.204;2023-04-29T04:39:02;0.40;;;0.40;;
13764;SDS011;6953;48.810;9.204;2023-04-29T04:41:33;0.30;;;0.30;;
13764;SDS011;6953;48.810;9.204;2023-04-29T04:44:00;0.40;;;0.40;;
13764;SDS011;6953;48.810;9.204;2023-04-29T04:46:27;0.40;;;0.40;;
13764;SDS011;6953;48.810;9.204;2023-04-29T04:48:54;0.30;;;0.30;;
13764;SDS011;6953;48.810;9.204;2023-04-29T04:51:21;0.50;;;0.50;;
13764;SDS011;6953;48.810;9.204;2023-04-29T04:53:47;0.35;;;0.35;;
13764;SDS011;6953;48.810;9.204;2023-04-29T04:56:13;0.40;;;0.40;;
13764;SDS011;6953;48.810;9.204;2023-04-29T04:58:39;0.47;;;0.47;;
13764;SDS011;6953;48.810;9.204;2023-04-29T05:01:06;0.40;;;0.40;;
13764;SDS011;6953;48.810;9.204;2023-04-29T05:03:32;0.40;;;0.40;;
13764;SDS011;6953;48.810;9.204;2023-04-29T05:05:59;0.32;;;0.32;;
13764;SDS011;6953;48.810;9.204;2023-04-29T05:08:26;0.50;;;0.50;;
13764;SDS011;6953;48.810;9.204;2023-04-29T05:10:52;0.30;;;0.30;;
13764;SDS011;6953;48.810;9.204;2023-04-29T05:13:18;0.30;;;0.30;;
13764;SDS011;6953;48.810;9.204;2023-04-29T05:15:45;0.40;;;0.40;;
13764;SDS011;6953;48.810;9.204;2023-04-29T05:18:11;0.40;;;0.40;;
13764;SDS011;6953;48.810;9.204;2023-04-29T05:20:39;0.30;;;0.30;;
13764;SDS011;6953;48.810;9.204;2023-04-29T05:23:05;0.35;;;0.35;;
13764;SDS011;6953;48.810;9.204;2023-04-29T05:25:31;0.40;;;0.40;;
13764;SDS011;6953;48.810;9.204;2023-04-29T05:27:58;0.38;;;0.38;;
13764;SDS011;6953;48.810;9.204;2023-04-29T05:30:27;0.20;;;0.20;;
13764;SDS011;6953;48.810;9.204;2023-04-29T05:32:52;0.40;;;0.40;;
13764;SDS011;6953;48.810;9.204;2023-04-29T05:35:18;0.30;;;0.30;;
13764;SDS011;6953;48.810;9.204;2023-04-29T05:37:45;0.30;;;0.30;;
13764;SDS011;6953;48.810;9.204;2023-04-29T05:40:12;0.30;;;0.30;;
13764;SDS011;6953;48.810;9.204;2023-04-29T05:42:38;0.30;;;0.30;;
13764;SDS011;6953;48.810;9.204;2023-04-29T05:45:04;0.30;;;0.30;;
13764;SDS011;6953;48.810;9.204;2023-04-29T05:47:32;0.50;;;0.50;;
13764;SDS011;6953;48.810;9.204;2023-04-29T05:49:58;0.50;;;0.50;;
13764;SDS011;6953;48.810;9.204;2023-04-29T05:52:26;0.40;;;0.40;;
13764;SDS011;6953;48.810;9.204;2023-04-29T05:54:53;0.40;;;0.40;;
13764;SDS011;6953;48.810;9.204;2023-04-29T05:57:19;0.40;;;0.40;;
13764;SDS011;6953;48.810;9.204;2023-04-29T05:59:45;0.30;;;0.30;;
13764;SDS011;6953;48.810;9.204;2023-04-29T06:02:11;0.38;;;0.38;;
13764;SDS011;6953;48.810;9.204;2023-04-29T06:04:36;0.30;;;0.30;;
13764;SDS011;6953;48.810;9.204;2023-04-29T06:07:02;0.30;;;0.30;;
13764;SDS011;6953;48.810;9.204;2023-04-29T06:09:29;0.30;;;0.30;;
13764;SDS011;6953;48.810;9.204;2023-04-29T06:11:55;0.30;;;0.30;;
13764;SDS011;6953;48.810;9.204;2023-04-29T06:14:20;0.30;;;0.30;;
13764;SDS011;6953;48.810;9.204;2023-04-29T06:16:46;0.30;;;0.30;;
13764;SDS011;6953;48.810;9.204;2023-04-29T06:19:13;0.20;;;0.20;;
13764;SDS011;6953;48.810;9.204;2023-04-29T06:21:39;0.28;;;0.28;;
13764;SDS011;6953;48.810;9.204;2023-04-29T06:24:05;0.30;;;0.30;;
13764;SDS011;6953;48.810;9.204;2023-04-29T06:26:30;0.30;;;0.30;;
13764;SDS011;6953;48.810;9.204;2023-04-29T06:28:56;0.30;;;0.30;;
13764;SDS011;6953;48.810;9.204;2023-04-29T06:31:22;0.30;;;0.30;;
13764;SDS011;6953;48.810;9.204;2023-04-29T06:33:47;0.32;;;0.32;;
13764;SDS011;6953;48.810;9.204;2023-04-29T06:36:13;0.22;;;0.22;;
13764;SDS011;6953;48.810;9.204;2023-04-29T06:38:39;0.30;;;0.30;;
13764;SDS011;6953;48.810;9.204;2023-04-29T06:41:05;0.30;;;0.30;;
13764;SDS011;6953;48.810;9.204;2023-04-29T06:43:31;0.30;;;0.30;;
13764;SDS011;6953;48.810;9.204;2023-04-29T06:45:57;0.20;;;0.20;;
13764;SDS011;6953;48.810;9.204;2023-04-29T06:48:22;0.28;;;0.28;;
13764;SDS011;6953;48.810;9.204;2023-04-29T06:50:54;0.20;;;0.20;;
13764;SDS011;6953;48.810;9.204;2023-04-29T06:53:21;0.30;;;0.30;;
13764;SDS011;6953;48.810;9.204;2023-04-29T06:55:48;0.20;;;0.20;;
13764;SDS011;6953;48.810;9.204;2023-04-29T06:58:15;0.20;;;0.20;;
13764;SDS011;6953;48.810;9.204;2023-04-29T07:00:45;0.30;;;0.30;;
13764;SDS011;6953;48.810;9.204;2023-04-29T07:03:12;0.30;;;0.30;;
13764;SDS011;6953;48.810;9.204;2023-04-29T07:05:39;0.20;;;0.20;;
13764;SDS011;6953;48.810;9.204;2023-04-29T07:08:06;0.20;;;0.20;;
13764;SDS011;6953;48.810;9.204;2023-04-29T07:10:32;0.10;;;0.10;;
13764;SDS011;6953;48.810;9.204;2023-04-29T07:12:58;0.20;;;0.20;;
13764;SDS011;6953;48.810;9.204;2023-04-29T07:15:24;0.15;;;0.15;;
13764;SDS011;6953;48.810;9.204;2023-04-29T07:17:54;0.20;;;0.20;;
13764;SDS011;6953;48.810;9.204;2023-04-29T07:20:20;0.10;;;0.10;;
13764;SDS011;6953;48.810;9.204;2023-04-29T07:22:46;0.20;;;0.20;;
13764;SDS011;6953;48.810;9.204;2023-04-29T07:25:11;0.20;;;0.20;;
13764;SDS011;6953;48.810;9.204;2023-04-29T07:27:38;0.17;;;0.17;;
13764;SDS011;6953;48.810;9.204;2023-04-29T07:30:04;0.20;;;0.20;;
13764;SDS011;6953;48.810;9.204;2023-04-29T07:32:30;0.20;;;0.20;;
13764;SDS011;6953;48.810;9.204;2023-04-29T07:34:56;0.10;;;0.10;;
13764;SDS011;6953;48.810;9.204;2023-04-29T07:37:22;0.20;;;0.20;;
13764;SDS011;6953;48.810;9.204;2023-04-29T07:39:47;0.20;;;0.20;;
13764;SDS011;6953;48.810;9.204;2023-04-29T07:42:13;0.20;;;0.20;;
13764;SDS011;6953;48.810;9.204;2023-04-29T07:44:39;0.20;;;0.20;;
13764;SDS011;6953;48.810;9.204;2023-04-29T07:47:04;0.20;;;0.20;;
13764;SDS011;6953;48.810;9.204;2023-04-29T07:49:31;0.20;;;0.20;;
13764;SDS011;6953;48.810;9.204;2023-04-29T07:51:57;0.20;;;0.20;;
13764;SDS011;6953;48.810;9.204;2023-04-29T07:54:22;0.20;;;0.20;;
13764;SDS011;6953;48.810;9.204;2023-04-29T07:56:48;0.20;;;0.20;;
13764;SDS011;6953;48.810;9.204;2023-04-29T07:59:13;0.20;;;0.20;;
13764;SDS011;6953;48.810;9.204;2023-04-29T08:01:39;0.20;;;0.20;;
13764;SDS011;6953;48.810;9.204;2023-04-29T08:04:06;0.20;;;0.20;;
13764;SDS011;6953;48.810;9.204;2023-04-29T08:06:32;0.20;;;0.20;;
13764;SDS011;6953;48.810;9.204;2023-04-29T08:08:59;0.20;;;0.20;;
13764;SDS011;6953;48.810;9.204;2023-04-29T08:11:24;0.20;;;0.20;;
13764;SDS011;6953;48.810;9.204;2023-04-29T08:13:51;0.20;;;0.20;;
13764;SDS011;6953;48.810;9.204;2023-04-29T08:16:16;0.20;;;0.20;;
13764;SDS011;6953;48.810;9.204;2023-04-29T08:18:42;0.15;;;0.15;;
13764;SDS011;6953;48.810;9.204;2023-04-29T08:21:08;0.10;;;0.10;;
13764;SDS011;6953;48.810;9.204;2023-04-29T08:23:38;0.30;;;0.30;;
13764;SDS011;6953;48.810;9.204;2023-04-29T08:26:04;0.20;;;0.20;;
13764;SDS011;6953;48.810;9.204;2023-04-29T08:28:30;0.20;;;0.20;;
13764;SDS011;6953;48.810;9.204;2023-04-29T08:30:55;0.20;;;0.20;;
13764;SDS011;6953;48.810;9.204;2023-04-29T08:33:22;0.20;;;0.20;;
13764;SDS011;6953;48.810;9.204;2023-04-29T08:35:48;0.20;;;0.20;;
13764;SDS011;6953;48.810;9.204;2023-04-29T08:38:21;0.20;;;0.20;;
13764;SDS011;6953;48.810;9.204;2023-04-29T08:40:47;0.20;;;0.20;;
13764;SDS011;6953;48.810;9.204;2023-04-29T08:43:13;0.20;;;0.20;;
13764;SDS011;6953;48.810;9.204;2023-04-29T08:45:42;0.20;;;0.20;;
13764;SDS011;6953;48.810;9.204;2023-04-29T08:48:08;0.20;;;0.20;;
13764;SDS011;6953;48.810;9.204;2023-04-29T08:50:38;0.20;;;0.20;;
13764;SDS011;6953;48.810;9.204;2023-04-29T08:53:08;0.20;;;0.20;;
13764;SDS011;6953;48.810;9.204;2023-04-29T08:55:41;0.20;;;0.20;;
13764;SDS011;6953;48.810;9.204;2023-04-29T08:58:11;0.20;;;0.20;;
13764;SDS011;6953;48.810;9.204;2023-04-29T09:00:39;0.20;;;0.20;;
13764;SDS011;6953;48.810;9.204;2023-04-29T09:03:16;0.30;;;0.30;;
13764;SDS011;6953;48.810;9.204;2023-04-29T09:05:54;0.20;;;0.20;;
13764;SDS011;6953;48.810;9.204;2023-04-29T09:08:23;0.20;;;0.20;;
13764;SDS011;6953;48.810;9.204;2023-04-29T09:10:51;0.20;;;0.20;;
13764;SDS011;6953;48.810;9.204;2023-04-29T09:13:27;0.10;;;0.10;;
13764;SDS011;6953;48.810;9.204;2023-04-29T09:15:55;0.20;;;0.20;;
13764;SDS011;6953;48.810;9.204;2023-04-29T09:18:40;0.20;;;0.20;;
13764;SDS011;6953;48.810;9.204;2023-04-29T09:21:23;0.30;;;0.30;;
13764;SDS011;6953;48.810;9.204;2023-04-29T09:23:53;0.22;;;0.22;;
13764;SDS011;6953;48.810;9.204;2023-04-29T09:26:50;0.20;;;0.20;;
13764;SDS011;6953;48.810;9.204;2023-04-29T09:29:14;0.20;;;0.20;;
13764;SDS011;6953;48.810;9.204;2023-04-29T09:31:42;0.20;;;0.20;;
13764;SDS011;6953;48.810;9.204;2023-04-29T09:34:11;0.30;;;0.30;;
13764;SDS011;6953;48.810;9.204;2023-04-29T09:39:17;0.20;;;0.20;;
13764;SDS011;6953;48.810;9.204;2023-04-29T09:44:27;0.20;;;0.20;;
13764;SDS011;6953;48.810;9.204;2023-04-29T09:49:33;0.20;;;0.20;;
13764;SDS011;6953;48.810;9.204;2023-04-29T09:52:02;0.20;;;0.20;;
13764;SDS011;6953;48.810;9.204;2023-04-29T09:54:30;0.20;;;0.20;;
13764;SDS011;6953;48.810;9.204;2023-04-29T09:57:00;0.20;;;0.20;;
13764;SDS011;6953;48.810;9.204;2023-04-29T09:59:30;0.20;;;0.20;;
13764;SDS011;6953;48.810;9.204;2023-04-29T10:01:58;0.20;;;0.20;;
13764;SDS011;6953;48.810;9.204;2023-04-29T10:04:25;0.20;;;0.20;;
13764;SDS011;6953;48.810;9.204;2023-04-29T10:06:52;0.20;;;0.20;;
13764;SDS011;6953;48.810;9.204;2023-04-29T10:09:20;0.20;;;0.20;;
13764;SDS011;6953;48.810;9.204;2023-04-29T10:11:50;0.20;;;0.20;;
13764;SDS011;6953;48.810;9.204;2023-04-29T10:14:18;0.20;;;0.20;;
13764;SDS011;6953;48.810;9.204;2023-04-29T10:16:46;0.17;;;0.17;;
13764;SDS011;6953;48.810;9.204;2023-04-29T10:19:25;0.10;;;0.10;;
13764;SDS011;6953;48.810;9.204;2023-04-29T10:21:57;0.10;;;0.10;;
13764;SDS011;6953;48.810;9.204;2023-04-29T10:24:29;0.10;;;0.10;;
13764;SDS011;6953;48.810;9.204;2023-04-29T10:26:56;0.00;;;0.00;;
13764;SDS011;6953;48.810;9.204;2023-04-29T10:29:24;0.10;;;0.10;;
13764;SDS011;6953;48.810;9.204;2023-04-29T10:31:52;0.10;;;0.10;;
13764;SDS011;6953;48.810;9.204;2023-04-29T10:34:20;0.08;;;0.08;;
13764;SDS011;6953;48.810;9.204;2023-04-29T10:36:47;0.10;;;0.10;;
13764;SDS011;6953;48.810;9.204;2023-04-29T10:39:23;0.00;;;0.00;;
13764;SDS011;6953;48.810;9.204;2023-04-29T10:42:20;0.10;;;0.10;;
13764;SDS011;6953;48.810;9.204;2023-04-29T10:50:31;0.03;;;0.03;;
13764;SDS011;6953;48.810;9.204;2023-04-29T10:53:01;0.10;;;0.10;;
13764;SDS011;6953;48.810;9.204;2023-04-29T10:55:30;0.10;;;0.10;;
13764;SDS011;6953;48.810;9.204;2023-04-29T10:58:00;0.10;;;0.10;;
13764;SDS011;6953;48.810;9.204;2023-04-29T11:00:29;0.00;;;0.00;;
13764;SDS011;6953;48.810;9.204;2023-04-29T11:02:57;0.10;;;0.10;;
13764;SDS011;6953;48.810;9.204;2023-04-29T11:05:37;0.10;;;0.10;;
13764;SDS011;6953;48.810;9.204;2023-04-29T11:08:13;0.10;;;0.10;;
13764;SDS011;6953;48.810;9.204;2023-04-29T11:10:55;0.10;;;0.10;;
13764;SDS011;6953;48.810;9.204;2023-04-29T11:13:29;0.10;;;0.10;;
13764;SDS011;6953;48.810;9.204;2023-04-29T11:16:04;0.10;;;0.10;;
13764;SDS011;6953;48.810;9.204;2023-04-29T11:21:34;0.10;;;0.10;;
13764;SDS011;6953;48.810;9.204;2023-04-29T11:24:01;0.10;;;0.10;;
13764;SDS011;6953;48.810;9.204;2023-04-29T11:26:33;0.10;;;0.10;;
13764;SDS011;6953;48.810;9.204;2023-04-29T11:28:59;0.10;;;0.10;;
13764;SDS011;6953;48.810;9.204;2023-04-29T11:31:34;0.10;;;0.10;;
13764;SDS011;6953;48.810;9.204;2023-04-29T11:34:02;0.10;;;0.10;;
13764;SDS011;6953;48.810;9.204;2023-04-29T11:36:30;0.20;;;0.20;;
13764;SDS011;6953;48.810;9.204;2023-04-29T11:38:56;0.10;;;0.10;;
13764;SDS011;6953;48.810;9.204;2023-04-29T11:41:25;0.10;;;0.10;;
13764;SDS011;6953;48.810;9.204;2023-04-29T11:44:00;0.17;;;0.17;;
13764;SDS011;6953;48.810;9.204;2023-04-29T11:46:30;0.10;;;0.10;;
13764;SDS011;6953;48.810;9.204;2023-04-29T11:48:56;0.10;;;0.10;;
13764;SDS011;6953;48.810;9.204;2023-04-29T11:51:23;0.10;;;0.10;;
13764;SDS011;6953;48.810;9.204;2023-04-29T11:53:49;0.20;;;0.20;;
13764;SDS011;6953;48.810;9.204;2023-04-29T11:56:15;0.22;;;0.22;;
13764;SDS011;6953;48.810;9.204;2023-04-29T11:58:41;0.30;;;0.30;;
13764;SDS011;6953;48.810;9.204;2023-04-29T12:01:07;0.20;;;0.20;;
13764;SDS011;6953;48.810;9.204;2023-04-29T12:03:33;0.20;;;0.20;;
13764;SDS011;6953;48.810;9.204;2023-04-29T12:05:58;0.20;;;0.20;;
13764;SDS011;6953;48.810;9.204;2023-04-29T12:08:27;0.20;;;0.20;;
13764;SDS011;6953;48.810;9.204;2023-04-29T12:10:55;0.20;;;0.20;;
13764;SDS011;6953;48.810;9.204;2023-04-29T12:13:23;0.20;;;0.20;;
13764;SDS011;6953;48.810;9.204;2023-04-29T12:15:51;0.20;;;0.20;;
13764;SDS011;6953;48.810;9.204;2023-04-29T12:18:18;0.20;;;0.20;;
13764;SDS011;6953;48.810;9.204;2023-04-29T12:20:45;0.20;;;0.20;;
13764;SDS011;6953;48.810;9.204;2023-04-29T12:23:16;0.10;;;0.10;;
13764;SDS011;6953;48.810;9.204;2023-04-29T12:25:48;0.20;;;0.20;;
13764;SDS011;6953;48.810;9.204;2023-04-29T12:28:17;0.20;;;0.20;;
13764;SDS011;6953;48.810;9.204;2023-04-29T12:30:44;0.10;;;0.10;;
13764;SDS011;6953;48.810;9.204;2023-04-29T12:33:14;0.10;;;0.10;;
13764;SDS011;6953;48.810;9.204;2023-04-29T12:35:51;0.10;;;0.10;;
13764;SDS011;6953;48.810;9.204;2023-04-29T12:38:19;0.10;;;0.10;;
13764;SDS011;6953;48.810;9.204;2023-04-29T12:40:56;0.10;;;0.10;;
13764;SDS011;6953;48.810;9.204;2023-04-29T12:43:24;0.10;;;0.10;;
13764;SDS011;6953;48.810;9.204;2023-04-29T12:45:53;0.10;;;0.10;;
13764;SDS011;6953;48.810;9.204;2023-04-29T12:48:44;0.20;;;0.20;;
13764;SDS011;6953;48.810;9.204;2023-04-29T12:51:11;0.10;;;0.10;;
13764;SDS011;6953;48.810;9.204;2023-04-29T12:53:37;0.10;;;0.10;;
13764;SDS011;6953;48.810;9.204;2023-04-29T12:56:04;0.20;;;0.20;;
13764;SDS011;6953;48.810;9.204;2023-04-29T12:58:30;0.20;;;0.20;;
13764;SDS011;6953;48.810;9.204;2023-04-29T13:00:57;0.20;;;0.20;;
13764;SDS011;6953;48.810;9.204;2023-04-29T13:03:23;0.30;;;0.30;;
13764;SDS011;6953;48.810;9.204;2023-04-29T13:05:49;0.20;;;0.20;;
13764;SDS011;6953;48.810;9.204;2023-04-29T13:08:17;0.20;;;0.20;;
13764;SDS011;6953;48.810;9.204;2023-04-29T13:10:44;0.20;;;0.20;;
13764;SDS011;6953;48.810;9.204;2023-04-29T13:13:10;0.20;;;0.20;;
13764;SDS011;6953;48.810;9.204;2023-04-29T13:15:36;0.20;;;0.20;;
13764;SDS011;6953;48.810;9.204;2023-04-29T13:18:05;0.15;;;0.15;;
13764;SDS011;6953;48.810;9.204;2023-04-29T13:20:31;0.10;;;0.10;;
13764;SDS011;6953;48.810;9.204;2023-04-29T13:22:57;0.10;;;0.10;;
13764;SDS011;6953;48.810;9.204;2023-04-29T13:25:23;0.10;;;0.10;;
13764;SDS011;6953;48.810;9.204;2023-04-29T13:27:49;0.10;;;0.10;;
13764;SDS011;6953;48.810;9.204;2023-04-29T13:30:15;0.10;;;0.10;;
13764;SDS011;6953;48.810;9.204;2023-04-29T13:32:40;0.10;;;0.10;;
13764;SDS011;6953;48.810;9.204;2023-04-29T13:35:06;0.10;;;0.10;;
13764;SDS011;6953;48.810;9.204;2023-04-29T13:37:33;0.20;;;0.20;;
13764;SDS011;6953;48.810;9.204;2023-04-29T13:39:59;0.10;;;0.10;;
13764;SDS011;6953;48.810;9.204;2023-04-29T13:42:24;0.10;;;0.10;;
13764;SDS011;6953;48.810;9.204;2023-04-29T13:44:51;0.10;;;0.10;;
13764;SDS011;6953;48.810;9.204;2023-04-29T13:47:17;0.13;;;0.13;;
13764;SDS011;6953;48.810;9.204;2023-04-29T13:49:43;0.20;;;0.20;;
13764;SDS011;6953;48.810;9.204;2023-04-29T13:52:10;0.20;;;0.20;;
13764;SDS011;6953;48.810;9.204;2023-04-29T13:54:36;0.20;;;0.20;;
13764;SDS011;6953;48.810;9.204;2023-04-29T13:57:03;0.10;;;0.10;;
13764;SDS011;6953;48.810;9.204;2023-04-29T13:59:32;0.20;;;0.20;;
13764;SDS011;6953;48.810;9.204;2023-04-29T14:02:00;0.20;;;0.20;;
13764;SDS011;6953;48.810;9.204;2023-04-29T14:04:27;0.20;;;0.20;;
13764;SDS011;6953;48.810;9.204;2023-04-29T14:06:53;0.20;;;0.20;;
13764;SDS011;6953;48.810;9.204;2023-04-29T14:09:20;0.20;;;0.20;;
13764;SDS011;6953;48.810;9.204;2023-04-29T14:11:46;0.20;;;0.20;;
13764;SDS011;6953;48.810;9.204;2023-04-29T14:14:12;0.20;;;0.20;;
13764;SDS011;6953;48.810;9.204;2023-04-29T14:16:38;0.10;;;0.10;;
13764;SDS011;6953;48.810;9.204;2023-04-29T14:19:04;0.10;;;0.10;;
13764;SDS011;6953;48.810;9.204;2023-04-29T14:21:31;0.10;;;0.10;;
13764;SDS011;6953;48.810;9.204;2023-04-29T14:23:59;0.10;;;0.10;;
13764;SDS011;6953;48.810;9.204;2023-04-29T14:26:29;0.10;;;0.10;;
13764;SDS011;6953;48.810;9.204;2023-04-29T14:28:55;0.10;;;0.10;;
13764;SDS011;6953;48.810;9.204;2023-04-29T14:31:24;0.10;;;0.10;;
13764;SDS011;6953;48.810;9.204;2023-04-29T14:33:52;0.10;;;0.10;;
13764;SDS011;6953;48.810;9.204;2023-04-29T14:36:18;0.20;;;0.20;;
13764;SDS011;6953;48.810;9.204;2023-04-29T14:38:43;0.20;;;0.20;;
13764;SDS011;6953;48.810;9.204;2023-04-29T14:41:09;0.10;;;0.10;;
13764;SDS011;6953;48.810;9.204;2023-04-29T14:43:35;0.20;;;0.20;;
13764;SDS011;6953;48.810;9.204;2023-04-29T14:46:00;0.20;;;0.20;;
13764;SDS011;6953;48.810;9.204;2023-04-29T14:48:26;0.20;;;0.20;;
13764;SDS011;6953;48.810;9.204;2023-04-29T14:50:53;0.10;;;0.10;;
13764;SDS011;6953;48.810;9.204;2023-04-29T14:53:19;0.20;;;0.20;;
13764;SDS011;6953;48.810;9.204;2023-04-29T14:55:46;0.10;;;0.10;;
13764;SDS011;6953;48.810;9.204;2023-04-29T14:58:13;0.20;;;0.20;;
13764;SDS011;6953;48.810;9.204;2023-04-29T15:00:39;0.20;;;0.20;;
13764;SDS011;6953;48.810;9.204;2023-04-29T15:03:05;0.20;;;0.20;;
13764;SDS011;6953;48.810;9.204;2023-04-29T15:05:33;0.20;;;0.20;;
13764;SDS011;6953;48.810;9.204;2023-04-29T15:08:00;0.20;;;0.20;;
13764;SDS011;6953;48.810;9.204;2023-04-29T15:10:29;0.13;;;0.13;;
13764;SDS011;6953;48.810;9.204;2023-04-29T15:12:56;0.20;;;0.20;;
13764;SDS011;6953;48.810;9.204;2023-04-29T15:15:23;0.10;;;0.10;;
13764;SDS011;6953;48.810;9.204;2023-04-29T15:17:50;0.20;;;0.20;;
13764;SDS011;6953;48.810;9.204;2023-04-29T15:20:16;0.13;;;0.13;;
13764;SDS011;6953;48.810;9.204;2023-04-29T15:22:41;0.17;;;0.17;;
13764;SDS011;6953;48.810;9.204;2023-04-29T15:25:08;0.30;;;0.30;;
13764;SDS011;6953;48.810;9.204;2023-04-29T15:27:34;0.30;;;0.30;;
13764;SDS011;6953;48.810;9.204;2023-04-29T15:30:01;0.30;;;0.30;;
13764;SDS011;6953;48.810;9.204;2023-04-29T15:32:28;0.30;;;0.30;;
13764;SDS011;6953;48.810;9.204;2023-04-29T15:34:59;0.38;;;0.38;;
13764;SDS011;6953;48.810;9.204;2023-04-29T15:37:26;0.50;;;0.50;;
13764;SDS011;6953;48.810;9.204;2023-04-29T15:39:53;0.40;;;0.40;;